sensor_id;sensor_type;location;lat;lon;timestamp;pressure;altitude;pressure_sealevel;temperature;humidity
76808;BME280;65758;45.458;11.062;2023-08-12T00:01:18;101603.83;;;23.23;57.82
76808;BME280;65758;45.458;11.062;2023-08-12T00:03:48;101604.83;;;23.25;57.84
76808;BME280;65758;45.458;11.062;2023-08-12T00:06:15;101603.21;;;23.23;57.87
76808;BME280;65758;45.458;11.062;2023-08-12T00:08:42;101603.55;;;23.24;57.85
76808;BME280;65758;45.458;11.062;2023-08-12T00:11:09;101602.02;;;23.27;57.91
76808;BME280;65758;45.458;11.062;2023-08-12T00:13:36;101601.45;;;23.28;57.90
76808;BME280;65758;45.458;11.062;2023-08-12T00:16:03;101603.31;;;23.28;57.83
76808;BME280;65758;45.458;11.062;2023-08-12T00:18:30;101603.89;;;23.25;57.93
76808;BME280;65758;45.458;11.062;2023-08-12T00:21:06;101603.40;;;23.22;58.06
76808;BME280;65758;45.458;11.062;2023-08-12T00:23:37;101598.95;;;23.19;58.23
76808;BME280;65758;45.458;11.062;2023-08-12T00:26:06;101595.84;;;23.18;58.14
76808;BME280;65758;45.458;11.062;2023-08-12T00:28:33;101595.36;;;23.14;58.25
76808;BME280;65758;45.458;11.062;2023-08-12T00:31:00;101590.22;;;23.13;58.38
76808;BME280;65758;45.458;11.062;2023-08-12T00:33:27;101588.47;;;23.10;58.52
76808;BME280;65758;45.458;11.062;2023-08-12T00:35:54;101588.25;;;23.08;58.65
76808;BME280;65758;45.458;11.062;2023-08-12T00:38:21;101587.24;;;23.08;58.60
76808;BME280;65758;45.458;11.062;2023-08-12T00:40:48;101586.12;;;23.09;58.65
76808;BME280;65758;45.458;11.062;2023-08-12T00:43:15;101583.02;;;23.07;58.70
76808;BME280;65758;45.458;11.062;2023-08-12T00:45:42;101581.77;;;23.08;58.63
76808;BME280;65758;45.458;11.062;2023-08-12T00:48:10;101584.44;;;23.10;58.81
76808;BME280;65758;45.458;11.062;2023-08-12T00:50:41;101585.78;;;23.10;58.66
76808;BME280;65758;45.458;11.062;2023-08-12T00:53:09;101590.19;;;23.10;58.71
76808;BME280;65758;45.458;11.062;2023-08-12T00:55:37;101586.80;;;23.08;58.92
76808;BME280;65758;45.458;11.062;2023-08-12T00:58:04;101584.00;;;23.09;58.80
76808;BME280;65758;45.458;11.062;2023-08-12T01:00:31;101578.67;;;23.10;58.92
76808;BME280;65758;45.458;11.062;2023-08-12T01:03:01;101580.03;;;23.09;58.99
76808;BME280;65758;45.458;11.062;2023-08-12T01:05:29;101579.95;;;23.06;58.95
76808;BME280;65758;45.458;11.062;2023-08-12T01:07:56;101585.23;;;23.01;59.14
76808;BME280;65758;45.458;11.062;2023-08-12T01:10:24;101586.89;;;22.97;59.21
76808;BME280;65758;45.458;11.062;2023-08-12T01:13:13;101581.41;;;22.96;59.37
76808;BME280;65758;45.458;11.062;2023-08-12T01:15:44;101579.58;;;22.92;59.60
76808;BME280;65758;45.458;11.062;2023-08-12T01:18:13;101579.79;;;22.86;59.80
76808;BME280;65758;45.458;11.062;2023-08-12T01:20:40;101575.61;;;22.83;59.82
76808;BME280;65758;45.458;11.062;2023-08-12T01:23:14;101580.05;;;22.81;59.90
76808;BME280;65758;45.458;11.062;2023-08-12T01:25:42;101573.38;;;22.78;59.93
76808;BME280;65758;45.458;11.062;2023-08-12T01:28:09;101573.33;;;22.76;60.13
76808;BME280;65758;45.458;11.062;2023-08-12T01:30:55;101576.01;;;22.74;60.17
76808;BME280;65758;45.458;11.062;2023-08-12T01:33:39;101574.50;;;22.75;60.14
76808;BME280;65758;45.458;11.062;2023-08-12T01:36:12;101572.04;;;22.75;60.08
76808;BME280;65758;45.458;11.062;2023-08-12T01:38:42;101569.98;;;22.76;60.05
76808;BME280;65758;45.458;11.062;2023-08-12T01:41:11;101569.95;;;22.78;60.04
76808;BME280;65758;45.458;11.062;2023-08-12T01:43:40;101567.33;;;22.78;60.10
76808;BME280;65758;45.458;11.062;2023-08-12T01:46:08;101567.90;;;22.79;59.98
76808;BME280;65758;45.458;11.062;2023-08-12T01:48:36;101562.59;;;22.79;59.97
76808;BME280;65758;45.458;11.062;2023-08-12T01:51:03;101561.75;;;22.77;60.00
76808;BME280;65758;45.458;11.062;2023-08-12T01:53:30;101557.41;;;22.76;60.08
76808;BME280;65758;45.458;11.062;2023-08-12T01:55:56;101557.36;;;22.75;60.10
76808;BME280;65758;45.458;11.062;2023-08-12T01:58:24;101556.48;;;22.74;60.20
76808;BME280;65758;45.458;11.062;2023-08-12T02:00:53;101553.88;;;22.72;60.19
76808;BME280;65758;45.458;11.062;2023-08-12T02:03:20;101552.75;;;22.72;60.30
76808;BME280;65758;45.458;11.062;2023-08-12T02:05:47;101552.81;;;22.70;60.10
76808;BME280;65758;45.458;11.062;2023-08-12T02:08:14;101549.73;;;22.71;60.29
76808;BME280;65758;45.458;11.062;2023-08-12T02:10:41;101551.42;;;22.69;60.31
76808;BME280;65758;45.458;11.062;2023-08-12T02:13:07;101548.52;;;22.68;60.33
76808;BME280;65758;45.458;11.062;2023-08-12T02:15:35;101547.91;;;22.69;60.37
76808;BME280;65758;45.458;11.062;2023-08-12T02:18:02;101546.34;;;22.67;60.48
76808;BME280;65758;45.458;11.062;2023-08-12T02:20:29;101541.83;;;22.64;60.50
76808;BME280;65758;45.458;11.062;2023-08-12T02:22:56;101540.48;;;22.63;60.55
76808;BME280;65758;45.458;11.062;2023-08-12T02:25:23;101543.34;;;22.62;60.48
76808;BME280;65758;45.458;11.062;2023-08-12T02:27:50;101544.84;;;22.62;60.57
76808;BME280;65758;45.458;11.062;2023-08-12T02:30:16;101542.85;;;22.59;60.66
76808;BME280;65758;45.458;11.062;2023-08-12T02:32:43;101542.27;;;22.54;60.85
76808;BME280;65758;45.458;11.062;2023-08-12T02:35:10;101543.86;;;22.48;61.01
76808;BME280;65758;45.458;11.062;2023-08-12T02:37:37;101543.08;;;22.47;61.08
76808;BME280;65758;45.458;11.062;2023-08-12T02:40:04;101542.27;;;22.45;61.27
76808;BME280;65758;45.458;11.062;2023-08-12T02:42:32;101540.48;;;22.46;61.31
76808;BME280;65758;45.458;11.062;2023-08-12T02:44:59;101534.55;;;22.47;61.42
76808;BME280;65758;45.458;11.062;2023-08-12T02:47:27;101531.52;;;22.48;61.17
76808;BME280;65758;45.458;11.062;2023-08-12T02:49:54;101529.69;;;22.49;61.34
76808;BME280;65758;45.458;11.062;2023-08-12T02:52:21;101532.98;;;22.47;61.29
76808;BME280;65758;45.458;11.062;2023-08-12T02:54:47;101528.87;;;22.46;61.26
76808;BME280;65758;45.458;11.062;2023-08-12T02:57:14;101525.67;;;22.46;61.38
76808;BME280;65758;45.458;11.062;2023-08-12T02:59:41;101522.21;;;22.46;61.33
76808;BME280;65758;45.458;11.062;2023-08-12T03:02:08;101519.75;;;22.47;61.17
76808;BME280;65758;45.458;11.062;2023-08-12T03:04:35;101523.05;;;22.47;61.22
76808;BME280;65758;45.458;11.062;2023-08-12T03:07:02;101523.28;;;22.46;61.25
76808;BME280;65758;45.458;11.062;2023-08-12T03:09:29;101516.89;;;22.42;61.28
76808;BME280;65758;45.458;11.062;2023-08-12T03:11:56;101514.56;;;22.40;61.34
76808;BME280;65758;45.458;11.062;2023-08-12T03:14:23;101518.12;;;22.40;61.32
76808;BME280;65758;45.458;11.062;2023-08-12T03:16:50;101516.79;;;22.39;61.34
76808;BME280;65758;45.458;11.062;2023-08-12T03:19:17;101520.26;;;22.38;61.33
76808;BME280;65758;45.458;11.062;2023-08-12T03:21:44;101516.86;;;22.36;61.39
76808;BME280;65758;45.458;11.062;2023-08-12T03:24:11;101521.45;;;22.36;61.50
76808;BME280;65758;45.458;11.062;2023-08-12T03:26:38;101515.42;;;22.32;61.55
76808;BME280;65758;45.458;11.062;2023-08-12T03:29:05;101516.66;;;22.29;61.75
76808;BME280;65758;45.458;11.062;2023-08-12T03:31:33;101516.64;;;22.26;61.81
76808;BME280;65758;45.458;11.062;2023-08-12T03:34:00;101513.08;;;22.23;61.81
76808;BME280;65758;45.458;11.062;2023-08-12T03:36:29;101513.03;;;22.20;61.93
76808;BME280;65758;45.458;11.062;2023-08-12T03:38:55;101513.05;;;22.17;62.03
76808;BME280;65758;45.458;11.062;2023-08-12T03:41:24;101513.89;;;22.13;62.24
76808;BME280;65758;45.458;11.062;2023-08-12T03:43:52;101517.80;;;22.15;62.03
76808;BME280;65758;45.458;11.062;2023-08-12T03:46:19;101520.77;;;22.15;62.05
76808;BME280;65758;45.458;11.062;2023-08-12T03:48:46;101518.13;;;22.16;61.98
76808;BME280;65758;45.458;11.062;2023-08-12T03:51:13;101518.58;;;22.15;61.94
76808;BME280;65758;45.458;11.062;2023-08-12T03:53:40;101522.04;;;22.13;62.10
76808;BME280;65758;45.458;11.062;2023-08-12T03:56:06;101521.55;;;22.10;62.16
76808;BME280;65758;45.458;11.062;2023-08-12T03:58:33;101521.45;;;22.10;62.19
76808;BME280;65758;45.458;11.062;2023-08-12T04:01:00;101520.33;;;22.11;62.24
76808;BME280;65758;45.458;11.062;2023-08-12T04:03:27;101522.27;;;22.10;62.22
76808;BME280;65758;45.458;11.062;2023-08-12T04:05:54;101524.23;;;22.08;62.24
76808;BME280;65758;45.458;11.062;2023-08-12T04:08:23;101523.41;;;22.07;62.33
76808;BME280;65758;45.458;11.062;2023-08-12T04:10:51;101523.20;;;22.05;62.34
76808;BME280;65758;45.458;11.062;2023-08-12T04:13:18;101522.98;;;22.01;62.34
76808;BME280;65758;45.458;11.062;2023-08-12T04:15:48;101522.59;;;21.99;62.40
76808;BME280;65758;45.458;11.062;2023-08-12T04:18:16;101521.42;;;21.98;62.54
76808;BME280;65758;45.458;11.062;2023-08-12T04:20:45;101521.15;;;21.99;62.42
76808;BME280;65758;45.458;11.062;2023-08-12T04:23:13;101521.38;;;22.00;62.35
76808;BME280;65758;45.458;11.062;2023-08-12T04:25:43;101522.47;;;22.01;62.54
76808;BME280;65758;45.458;11.062;2023-08-12T04:28:12;101522.08;;;22.02;62.39
76808;BME280;65758;45.458;11.062;2023-08-12T04:30:46;101521.26;;;22.00;62.40
76808;BME280;65758;45.458;11.062;2023-08-12T04:33:14;101520.85;;;22.00;62.42
76808;BME280;65758;45.458;11.062;2023-08-12T04:35:41;101524.21;;;21.99;62.49
76808;BME280;65758;45.458;11.062;2023-08-12T04:38:08;101525.44;;;21.98;62.49
76808;BME280;65758;45.458;11.062;2023-08-12T04:40:38;101523.77;;;21.97;62.57
76808;BME280;65758;45.458;11.062;2023-08-12T04:43:10;101527.10;;;21.98;62.42
76808;BME280;65758;45.458;11.062;2023-08-12T04:45:38;101526.33;;;22.01;62.35
76808;BME280;65758;45.458;11.062;2023-08-12T04:48:07;101525.10;;;22.02;62.46
76808;BME280;65758;45.458;11.062;2023-08-12T04:50:35;101522.52;;;22.01;62.44
76808;BME280;65758;45.458;11.062;2023-08-12T04:53:04;101522.09;;;22.00;62.48
76808;BME280;65758;45.458;11.062;2023-08-12T04:55:31;101521.54;;;21.97;62.57
76808;BME280;65758;45.458;11.062;2023-08-12T04:57:59;101521.05;;;21.96;62.51
76808;BME280;65758;45.458;11.062;2023-08-12T05:00:25;101522.98;;;21.97;62.52
76808;BME280;65758;45.458;11.062;2023-08-12T05:02:56;101523.88;;;21.98;62.49
76808;BME280;65758;45.458;11.062;2023-08-12T05:05:25;101527.11;;;22.00;62.43
76808;BME280;65758;45.458;11.062;2023-08-12T05:07:52;101525.16;;;22.00;62.29
76808;BME280;65758;45.458;11.062;2023-08-12T05:10:19;101525.20;;;22.03;62.29
76808;BME280;65758;45.458;11.062;2023-08-12T05:12:46;101528.54;;;22.06;62.29
76808;BME280;65758;45.458;11.062;2023-08-12T05:15:14;101527.58;;;22.08;62.32
76808;BME280;65758;45.458;11.062;2023-08-12T05:17:41;101527.75;;;22.09;62.32
76808;BME280;65758;45.458;11.062;2023-08-12T05:20:09;101526.77;;;22.13;62.11
76808;BME280;65758;45.458;11.062;2023-08-12T05:22:36;101527.15;;;22.16;62.15
76808;BME280;65758;45.458;11.062;2023-08-12T05:25:03;101530.17;;;22.18;62.04
76808;BME280;65758;45.458;11.062;2023-08-12T05:27:30;101527.41;;;22.21;62.04
76808;BME280;65758;45.458;11.062;2023-08-12T05:29:56;101527.20;;;22.23;62.07
76808;BME280;65758;45.458;11.062;2023-08-12T05:32:23;101523.55;;;22.24;62.10
76808;BME280;65758;45.458;11.062;2023-08-12T05:34:52;101524.33;;;22.27;61.97
76808;BME280;65758;45.458;11.062;2023-08-12T05:37:19;101520.29;;;22.33;61.98
76808;BME280;65758;45.458;11.062;2023-08-12T05:39:46;101523.88;;;22.38;61.92
76808;BME280;65758;45.458;11.062;2023-08-12T05:42:13;101528.27;;;22.44;61.74
76808;BME280;65758;45.458;11.062;2023-08-12T05:44:41;101520.98;;;22.50;61.67
76808;BME280;65758;45.458;11.062;2023-08-12T05:47:08;101528.09;;;22.57;61.50
76808;BME280;65758;45.458;11.062;2023-08-12T05:49:35;101527.82;;;22.63;61.34
76808;BME280;65758;45.458;11.062;2023-08-12T05:52:02;101530.36;;;22.72;61.29
76808;BME280;65758;45.458;11.062;2023-08-12T05:54:29;101528.55;;;22.87;61.05
76808;BME280;65758;45.458;11.062;2023-08-12T05:56:56;101529.11;;;23.01;60.88
76808;BME280;65758;45.458;11.062;2023-08-12T05:59:22;101526.72;;;23.15;60.66
76808;BME280;65758;45.458;11.062;2023-08-12T06:01:49;101522.20;;;23.26;60.52
76808;BME280;65758;45.458;11.062;2023-08-12T06:04:16;101522.85;;;23.35;60.39
76808;BME280;65758;45.458;11.062;2023-08-12T06:06:43;101524.30;;;23.45;60.20
76808;BME280;65758;45.458;11.062;2023-08-12T06:09:09;101524.52;;;23.53;60.10
76808;BME280;65758;45.458;11.062;2023-08-12T06:11:36;101520.84;;;23.61;59.91
76808;BME280;65758;45.458;11.062;2023-08-12T06:14:03;101520.98;;;23.70;59.75
76808;BME280;65758;45.458;11.062;2023-08-12T06:16:30;101514.70;;;23.82;59.63
76808;BME280;65758;45.458;11.062;2023-08-12T06:18:57;101519.48;;;23.94;59.54
76808;BME280;65758;45.458;11.062;2023-08-12T06:21:23;101519.48;;;24.09;59.39
76808;BME280;65758;45.458;11.062;2023-08-12T06:23:51;101526.39;;;24.27;59.26
76808;BME280;65758;45.458;11.062;2023-08-12T06:26:17;101525.66;;;24.40;58.77
76808;BME280;65758;45.458;11.062;2023-08-12T06:28:44;101519.98;;;24.50;58.74
76808;BME280;65758;45.458;11.062;2023-08-12T06:31:11;101519.09;;;24.60;58.20
76808;BME280;65758;45.458;11.062;2023-08-12T06:33:37;101522.45;;;24.69;57.96
76808;BME280;65758;45.458;11.062;2023-08-12T06:36:05;101521.95;;;24.76;57.83
76808;BME280;65758;45.458;11.062;2023-08-12T06:38:32;101517.95;;;24.83;58.18
76808;BME280;65758;45.458;11.062;2023-08-12T06:40:58;101518.92;;;24.90;57.97
76808;BME280;65758;45.458;11.062;2023-08-12T06:43:25;101517.61;;;25.02;57.73
76808;BME280;65758;45.458;11.062;2023-08-12T06:45:56;101517.10;;;25.19;57.53
76808;BME280;65758;45.458;11.062;2023-08-12T06:48:23;101519.23;;;25.39;57.49
76808;BME280;65758;45.458;11.062;2023-08-12T06:50:54;101521.06;;;25.63;57.28
76808;BME280;65758;45.458;11.062;2023-08-12T06:53:22;101521.68;;;25.90;57.25
76808;BME280;65758;45.458;11.062;2023-08-12T06:55:49;101523.73;;;26.14;56.96
76808;BME280;65758;45.458;11.062;2023-08-12T06:58:16;101522.23;;;26.35;56.30
76808;BME280;65758;45.458;11.062;2023-08-12T07:00:43;101524.86;;;26.58;55.81
76808;BME280;65758;45.458;11.062;2023-08-12T07:03:10;101522.34;;;26.80;54.98
76808;BME280;65758;45.458;11.062;2023-08-12T07:05:37;101519.52;;;26.98;54.40
76808;BME280;65758;45.458;11.062;2023-08-12T07:08:04;101520.19;;;27.14;53.86
76808;BME280;65758;45.458;11.062;2023-08-12T07:10:31;101517.30;;;27.31;53.18
76808;BME280;65758;45.458;11.062;2023-08-12T07:12:57;101515.15;;;27.47;52.66
76808;BME280;65758;45.458;11.062;2023-08-12T07:15:24;101516.05;;;27.67;51.91
76808;BME280;65758;45.458;11.062;2023-08-12T07:17:51;101516.06;;;27.88;50.53
76808;BME280;65758;45.458;11.062;2023-08-12T07:20:18;101518.64;;;28.06;49.99
76808;BME280;65758;45.458;11.062;2023-08-12T07:22:45;101516.83;;;28.21;49.82
76808;BME280;65758;45.458;11.062;2023-08-12T07:25:11;101517.29;;;28.34;49.19
76808;BME280;65758;45.458;11.062;2023-08-12T07:27:38;101517.00;;;28.49;47.35
76808;BME280;65758;45.458;11.062;2023-08-12T07:30:06;101513.63;;;28.63;46.32
76808;BME280;65758;45.458;11.062;2023-08-12T07:32:36;101511.83;;;28.77;46.32
76808;BME280;65758;45.458;11.062;2023-08-12T07:35:03;101513.09;;;28.91;46.35
76808;BME280;65758;45.458;11.062;2023-08-12T07:37:32;101512.65;;;29.08;45.87
76808;BME280;65758;45.458;11.062;2023-08-12T07:39:59;101515.43;;;29.21;45.91
76808;BME280;65758;45.458;11.062;2023-08-12T07:42:26;101516.66;;;29.35;45.58
76808;BME280;65758;45.458;11.062;2023-08-12T07:44:53;101516.74;;;29.48;45.25
76808;BME280;65758;45.458;11.062;2023-08-12T07:47:19;101517.55;;;29.60;44.30
76808;BME280;65758;45.458;11.062;2023-08-12T07:49:47;101510.61;;;29.68;43.15
76808;BME280;65758;45.458;11.062;2023-08-12T07:52:13;101515.08;;;29.74;43.05
76808;BME280;65758;45.458;11.062;2023-08-12T07:54:40;101515.19;;;29.82;44.10
76808;BME280;65758;45.458;11.062;2023-08-12T07:57:07;101517.21;;;29.91;44.35
76808;BME280;65758;45.458;11.062;2023-08-12T07:59:33;101518.86;;;30.01;43.68
76808;BME280;65758;45.458;11.062;2023-08-12T08:02:00;101520.10;;;30.11;43.92
76808;BME280;65758;45.458;11.062;2023-08-12T08:04:27;101518.10;;;30.21;43.63
76808;BME280;65758;45.458;11.062;2023-08-12T08:06:54;101515.30;;;30.29;44.03
76808;BME280;65758;45.458;11.062;2023-08-12T08:09:21;101515.27;;;30.42;43.80
76808;BME280;65758;45.458;11.062;2023-08-12T08:11:47;101516.73;;;30.54;43.90
76808;BME280;65758;45.458;11.062;2023-08-12T08:14:14;101516.64;;;30.66;43.61
76808;BME280;65758;45.458;11.062;2023-08-12T08:16:41;101518.92;;;30.77;43.36
76808;BME280;65758;45.458;11.062;2023-08-12T08:19:08;101519.02;;;30.86;42.99
76808;BME280;65758;45.458;11.062;2023-08-12T08:21:39;101519.23;;;30.91;42.02
76808;BME280;65758;45.458;11.062;2023-08-12T08:24:07;101522.30;;;30.93;41.97
76808;BME280;65758;45.458;11.062;2023-08-12T08:26:35;101523.64;;;30.94;42.02
76808;BME280;65758;45.458;11.062;2023-08-12T08:29:03;101523.92;;;30.97;41.99
76808;BME280;65758;45.458;11.062;2023-08-12T08:31:30;101525.11;;;31.02;41.90
76808;BME280;65758;45.458;11.062;2023-08-12T08:33:57;101523.35;;;31.09;41.59
76808;BME280;65758;45.458;11.062;2023-08-12T08:36:24;101519.81;;;31.18;41.65
76808;BME280;65758;45.458;11.062;2023-08-12T08:38:51;101521.68;;;31.27;41.21
76808;BME280;65758;45.458;11.062;2023-08-12T08:41:18;101524.29;;;31.34;41.29
76808;BME280;65758;45.458;11.062;2023-08-12T08:43:48;101517.68;;;31.41;41.46
76808;BME280;65758;45.458;11.062;2023-08-12T08:46:15;101521.59;;;31.50;41.56
76808;BME280;65758;45.458;11.062;2023-08-12T08:48:43;101517.30;;;31.61;41.43
76808;BME280;65758;45.458;11.062;2023-08-12T08:51:11;101517.23;;;31.72;41.18
76808;BME280;65758;45.458;11.062;2023-08-12T08:53:39;101510.09;;;31.81;40.42
76808;BME280;65758;45.458;11.062;2023-08-12T08:56:07;101507.48;;;31.88;40.46
76808;BME280;65758;45.458;11.062;2023-08-12T08:58:43;101506.40;;;31.94;40.74
76808;BME280;65758;45.458;11.062;2023-08-12T09:01:10;101508.56;;;32.05;40.55
76808;BME280;65758;45.458;11.062;2023-08-12T09:03:38;101507.54;;;32.10;40.51
76808;BME280;65758;45.458;11.062;2023-08-12T09:06:06;101507.35;;;32.14;40.25
76808;BME280;65758;45.458;11.062;2023-08-12T09:08:35;101506.23;;;32.14;40.40
76808;BME280;65758;45.458;11.062;2023-08-12T09:11:03;101504.59;;;32.11;40.61
76808;BME280;65758;45.458;11.062;2023-08-12T09:13:30;101504.52;;;32.14;40.61
76808;BME280;65758;45.458;11.062;2023-08-12T09:15:56;101506.30;;;32.16;40.51
76808;BME280;65758;45.458;11.062;2023-08-12T09:18:23;101507.05;;;32.21;40.44
76808;BME280;65758;45.458;11.062;2023-08-12T09:20:51;101503.78;;;32.26;40.33
76808;BME280;65758;45.458;11.062;2023-08-12T09:23:18;101499.50;;;32.29;40.08
76808;BME280;65758;45.458;11.062;2023-08-12T09:25:45;101494.76;;;32.25;40.12
76808;BME280;65758;45.458;11.062;2023-08-12T09:28:12;101496.63;;;32.25;40.38
76808;BME280;65758;45.458;11.062;2023-08-12T09:30:39;101496.74;;;32.28;40.88
76808;BME280;65758;45.458;11.062;2023-08-12T09:33:08;101494.37;;;32.28;40.85
76808;BME280;65758;45.458;11.062;2023-08-12T09:35:37;101495.07;;;32.24;40.62
76808;BME280;65758;45.458;11.062;2023-08-12T09:38:07;101493.27;;;32.16;40.94
76808;BME280;65758;45.458;11.062;2023-08-12T09:40:35;101491.48;;;32.06;40.83
76808;BME280;65758;45.458;11.062;2023-08-12T09:43:03;101493.65;;;32.04;41.39
76808;BME280;65758;45.458;11.062;2023-08-12T09:45:31;101495.91;;;32.13;41.31
76808;BME280;65758;45.458;11.062;2023-08-12T09:48:00;101489.75;;;32.20;41.20
76808;BME280;65758;45.458;11.062;2023-08-12T09:50:27;101488.27;;;32.27;41.20
76808;BME280;65758;45.458;11.062;2023-08-12T09:52:55;101484.66;;;32.33;41.01
76808;BME280;65758;45.458;11.062;2023-08-12T09:55:24;101484.36;;;32.34;40.84
76808;BME280;65758;45.458;11.062;2023-08-12T09:57:53;101482.17;;;32.36;41.04
76808;BME280;65758;45.458;11.062;2023-08-12T10:00:21;101478.77;;;32.38;40.73
76808;BME280;65758;45.458;11.062;2023-08-12T10:02:51;101476.19;;;32.44;40.92
76808;BME280;65758;45.458;11.062;2023-08-12T10:05:22;101476.85;;;32.52;40.80
76808;BME280;65758;45.458;11.062;2023-08-12T10:07:51;101472.86;;;32.57;40.49
76808;BME280;65758;45.458;11.062;2023-08-12T10:10:20;101479.76;;;32.64;40.28
76808;BME280;65758;45.458;11.062;2023-08-12T10:12:49;101474.68;;;32.59;40.23
76808;BME280;65758;45.458;11.062;2023-08-12T10:15:17;101472.29;;;32.63;40.29
76808;BME280;65758;45.458;11.062;2023-08-12T10:17:44;101471.77;;;32.70;40.03
76808;BME280;65758;45.458;11.062;2023-08-12T10:20:24;101469.42;;;32.75;40.03
76808;BME280;65758;45.458;11.062;2023-08-12T10:22:51;101463.14;;;32.82;39.91
76808;BME280;65758;45.458;11.062;2023-08-12T10:25:19;101460.03;;;32.92;40.18
76808;BME280;65758;45.458;11.062;2023-08-12T10:27:49;101456.83;;;33.04;39.97
76808;BME280;65758;45.458;11.062;2023-08-12T10:30:16;101450.39;;;33.16;40.02
76808;BME280;65758;45.458;11.062;2023-08-12T10:32:43;101453.58;;;33.32;39.36
76808;BME280;65758;45.458;11.062;2023-08-12T10:35:10;101451.54;;;33.37;38.73
76808;BME280;65758;45.458;11.062;2023-08-12T10:37:37;101450.61;;;33.42;38.57
76808;BME280;65758;45.458;11.062;2023-08-12T10:40:05;101445.84;;;33.43;38.31
76808;BME280;65758;45.458;11.062;2023-08-12T10:42:45;101442.15;;;33.41;38.04
76808;BME280;65758;45.458;11.062;2023-08-12T10:45:17;101439.10;;;33.36;37.90
76808;BME280;65758;45.458;11.062;2023-08-12T10:47:52;101438.61;;;33.36;38.49
76808;BME280;65758;45.458;11.062;2023-08-12T10:50:20;101434.35;;;33.37;38.34
76808;BME280;65758;45.458;11.062;2023-08-12T10:52:51;101427.30;;;33.32;38.30
76808;BME280;65758;45.458;11.062;2023-08-12T10:55:23;101425.83;;;33.31;38.61
76808;BME280;65758;45.458;11.062;2023-08-12T10:57:52;101422.64;;;33.30;38.81
76808;BME280;65758;45.458;11.062;2023-08-12T11:00:24;101414.65;;;33.32;38.85
76808;BME280;65758;45.458;11.062;2023-08-12T11:02:53;101417.72;;;33.40;38.85
76808;BME280;65758;45.458;11.062;2023-08-12T11:05:20;101415.61;;;33.52;38.55
76808;BME280;65758;45.458;11.062;2023-08-12T11:07:55;101412.67;;;33.63;38.19
76808;BME280;65758;45.458;11.062;2023-08-12T11:10:24;101412.42;;;33.69;37.86
76808;BME280;65758;45.458;11.062;2023-08-12T11:18:02;101405.86;;;33.55;38.78
76808;BME280;65758;45.458;11.062;2023-08-12T11:20:31;101405.42;;;33.59;39.13
76808;BME280;65758;45.458;11.062;2023-08-12T11:22:58;101400.90;;;33.57;39.16
76808;BME280;65758;45.458;11.062;2023-08-12T11:25:28;101401.58;;;33.55;39.31
76808;BME280;65758;45.458;11.062;2023-08-12T11:27:56;101400.67;;;33.67;39.12
76808;BME280;65758;45.458;11.062;2023-08-12T11:30:23;101401.88;;;33.79;38.68
76808;BME280;65758;45.458;11.062;2023-08-12T11:32:52;101396.11;;;33.85;38.32
76808;BME280;65758;45.458;11.062;2023-08-12T11:35:21;101394.16;;;33.81;38.06
76808;BME280;65758;45.458;11.062;2023-08-12T11:37:51;101388.25;;;33.82;38.45
76808;BME280;65758;45.458;11.062;2023-08-12T11:40:20;101386.86;;;33.92;38.86
76808;BME280;65758;45.458;11.062;2023-08-12T11:42:48;101385.91;;;34.06;38.28
76808;BME280;65758;45.458;11.062;2023-08-12T11:45:18;101384.81;;;34.14;37.86
76808;BME280;65758;45.458;11.062;2023-08-12T11:47:45;101386.39;;;34.17;38.46
76808;BME280;65758;45.458;11.062;2023-08-12T11:50:14;101386.77;;;34.18;37.77
76808;BME280;65758;45.458;11.062;2023-08-12T11:52:40;101384.61;;;34.16;37.53
76808;BME280;65758;45.458;11.062;2023-08-12T11:55:08;101375.92;;;34.15;37.94
76808;BME280;65758;45.458;11.062;2023-08-12T11:57:35;101378.11;;;34.15;37.95
76808;BME280;65758;45.458;11.062;2023-08-12T12:00:05;101380.73;;;34.14;37.61
76808;BME280;65758;45.458;11.062;2023-08-12T12:02:51;101376.00;;;34.15;37.72
76808;BME280;65758;45.458;11.062;2023-08-12T12:05:25;101371.98;;;34.17;37.72
76808;BME280;65758;45.458;11.062;2023-08-12T12:07:56;101373.91;;;34.24;37.47
76808;BME280;65758;45.458;11.062;2023-08-12T12:10:27;101368.47;;;34.27;37.28
76808;BME280;65758;45.458;11.062;2023-08-12T12:13:00;101364.48;;;34.27;37.18
76808;BME280;65758;45.458;11.062;2023-08-12T12:15:27;101356.01;;;34.29;37.21
76808;BME280;65758;45.458;11.062;2023-08-12T12:17:54;101355.33;;;34.32;37.10
76808;BME280;65758;45.458;11.062;2023-08-12T12:20:21;101363.95;;;34.29;37.09
76808;BME280;65758;45.458;11.062;2023-08-12T12:22:48;101357.96;;;34.18;36.97
76808;BME280;65758;45.458;11.062;2023-08-12T12:25:16;101359.95;;;34.14;37.35
76808;BME280;65758;45.458;11.062;2023-08-12T12:27:47;101357.98;;;34.16;37.18
76808;BME280;65758;45.458;11.062;2023-08-12T12:30:15;101356.99;;;34.15;37.26
76808;BME280;65758;45.458;11.062;2023-08-12T12:32:42;101353.86;;;34.17;37.32
76808;BME280;65758;45.458;11.062;2023-08-12T12:35:09;101349.25;;;34.18;37.02
76808;BME280;65758;45.458;11.062;2023-08-12T12:37:36;101345.16;;;34.27;37.03
76808;BME280;65758;45.458;11.062;2023-08-12T12:40:04;101344.52;;;34.35;36.96
76808;BME280;65758;45.458;11.062;2023-08-12T12:42:34;101342.70;;;34.37;36.91
76808;BME280;65758;45.458;11.062;2023-08-12T12:45:01;101345.68;;;34.36;36.84
76808;BME280;65758;45.458;11.062;2023-08-12T12:47:28;101339.11;;;34.33;36.68
76808;BME280;65758;45.458;11.062;2023-08-12T12:49:55;101334.30;;;34.29;36.64